sensor_id;sensor_type;location;lat;lon;timestamp;pressure;altitude;pressure_sealevel;temperature;humidity
6218;BME280;3142;48.206;11.550;2023-03-13T00:02:16;95443.63;;;8.69;74.10
6218;BME280;3142;48.206;11.550;2023-03-13T00:04:43;95440.59;;;8.66;73.72
6218;BME280;3142;48.206;11.550;2023-03-13T00:07:10;95430.94;;;8.59;72.85
6218;BME280;3142;48.206;11.550;2023-03-13T00:09:38;95432.75;;;8.59;73.21
6218;BME280;3142;48.206;11.550;2023-03-13T00:12:04;95425.31;;;8.56;73.74
6218;BME280;3142;48.206;11.550;2023-03-13T00:14:31;95418.69;;;8.53;72.57
6218;BME280;3142;48.206;11.550;2023-03-13T00:16:57;95409.25;;;8.52;73.29
6218;BME280;3142;48.206;11.550;2023-03-13T00:19:25;95421.25;;;8.47;73.29
6218;BME280;3142;48.206;11.550;2023-03-13T00:21:52;95418.84;;;8.45;73.72
6218;BME280;3142;48.206;11.550;2023-03-13T00:24:19;95412.03;;;8.44;73.62
6218;BME280;3142;48.206;11.550;2023-03-13T00:26:45;95413.44;;;8.47;73.23
6218;BME280;3142;48.206;11.550;2023-03-13T00:29:12;95406.81;;;8.44;73.21
6218;BME280;3142;48.206;11.550;2023-03-13T00:31:38;95406.00;;;8.44;71.95
6218;BME280;3142;48.206;11.550;2023-03-13T00:34:04;95407.81;;;8.43;72.12
6218;BME280;3142;48.206;11.550;2023-03-13T00:36:32;95393.38;;;8.41;73.15
6218;BME280;3142;48.206;11.550;2023-03-13T00:39:01;95396.97;;;8.40;73.32
6218;BME280;3142;48.206;11.550;2023-03-13T00:41:28;95393.56;;;8.39;71.73
6218;BME280;3142;48.206;11.550;2023-03-13T00:43:56;95381.34;;;8.40;72.64
6218;BME280;3142;48.206;11.550;2023-03-13T00:46:24;95379.53;;;8.40;71.88
6218;BME280;3142;48.206;11.550;2023-03-13T00:48:51;95380.91;;;8.36;72.67
6218;BME280;3142;48.206;11.550;2023-03-13T00:51:19;95376.69;;;8.35;71.92
6218;BME280;3142;48.206;11.550;2023-03-13T00:53:46;95383.25;;;8.31;72.49
6218;BME280;3142;48.206;11.550;2023-03-13T00:56:14;95369.63;;;8.29;72.23
6218;BME280;3142;48.206;11.550;2023-03-13T00:58:43;95370.81;;;8.26;71.57
6218;BME280;3142;48.206;11.550;2023-03-13T01:01:12;95375.78;;;8.21;72.62
6218;BME280;3142;48.206;11.550;2023-03-13T01:03:40;95380.38;;;8.19;72.37
6218;BME280;3142;48.206;11.550;2023-03-13T01:06:09;95365.94;;;8.17;71.98
6218;BME280;3142;48.206;11.550;2023-03-13T01:08:36;95371.75;;;8.12;71.95
6218;BME280;3142;48.206;11.550;2023-03-13T01:11:04;95359.53;;;8.13;71.78
6218;BME280;3142;48.206;11.550;2023-03-13T01:13:33;95355.06;;;8.07;71.71
6218;BME280;3142;48.206;11.550;2023-03-13T01:16:01;95360.44;;;7.98;72.32
6218;BME280;3142;48.206;11.550;2023-03-13T01:18:28;95352.25;;;8.01;73.33
6218;BME280;3142;48.206;11.550;2023-03-13T01:20:54;95348.03;;;8.00;72.94
6218;BME280;3142;48.206;11.550;2023-03-13T01:23:21;95358.41;;;7.94;72.72
6218;BME280;3142;48.206;11.550;2023-03-13T01:25:47;95355.63;;;7.95;73.28
6218;BME280;3142;48.206;11.550;2023-03-13T01:28:13;95350.97;;;7.91;72.83
6218;BME280;3142;48.206;11.550;2023-03-13T01:30:41;95349.56;;;7.88;72.40
6218;BME280;3142;48.206;11.550;2023-03-13T01:33:08;95347.72;;;7.82;73.41
6218;BME280;3142;48.206;11.550;2023-03-13T01:35:34;95350.34;;;7.82;73.17
6218;BME280;3142;48.206;11.550;2023-03-13T01:38:00;95348.28;;;7.78;73.55
6218;BME280;3142;48.206;11.550;2023-03-13T01:40:27;95341.84;;;7.73;72.59
6218;BME280;3142;48.206;11.550;2023-03-13T01:42:54;95350.25;;;7.69;73.02
6218;BME280;3142;48.206;11.550;2023-03-13T01:45:55;95346.41;;;7.65;72.77
6218;BME280;3142;48.206;11.550;2023-03-13T01:48:26;95348.38;;;7.63;73.70
6218;BME280;3142;48.206;11.550;2023-03-13T01:50:56;95343.78;;;7.65;73.77
6218;BME280;3142;48.206;11.550;2023-03-13T01:53:27;95344.97;;;7.62;73.36
6218;BME280;3142;48.206;11.550;2023-03-13T01:55:56;95336.75;;;7.59;73.37
6218;BME280;3142;48.206;11.550;2023-03-13T01:58:25;95331.94;;;7.56;73.01
6218;BME280;3142;48.206;11.550;2023-03-13T02:00:54;95327.16;;;7.59;73.95
6218;BME280;3142;48.206;11.550;2023-03-13T02:03:21;95333.97;;;7.60;73.67
6218;BME280;3142;48.206;11.550;2023-03-13T02:05:49;95329.94;;;7.58;73.69
6218;BME280;3142;48.206;11.550;2023-03-13T02:08:18;95322.69;;;7.53;73.38
6218;BME280;3142;48.206;11.550;2023-03-13T02:10:49;95320.09;;;7.53;72.82
6218;BME280;3142;48.206;11.550;2023-03-13T02:13:17;95317.69;;;7.52;73.55
6218;BME280;3142;48.206;11.550;2023-03-13T02:15:45;95315.88;;;7.52;72.95
6218;BME280;3142;48.206;11.550;2023-03-13T02:18:14;95302.66;;;7.54;72.99
6218;BME280;3142;48.206;11.550;2023-03-13T02:20:40;95312.91;;;7.55;73.12
6218;BME280;3142;48.206;11.550;2023-03-13T02:23:12;95311.84;;;7.50;73.61
6218;BME280;3142;48.206;11.550;2023-03-13T02:25:43;95314.44;;;7.43;73.38
6218;BME280;3142;48.206;11.550;2023-03-13T02:28:12;95318.63;;;7.44;74.26
6218;BME280;3142;48.206;11.550;2023-03-13T02:30:42;95316.03;;;7.44;73.95
6218;BME280;3142;48.206;11.550;2023-03-13T02:33:09;95314.38;;;7.36;73.88
6218;BME280;3142;48.206;11.550;2023-03-13T02:35:36;95320.81;;;7.40;74.47
6218;BME280;3142;48.206;11.550;2023-03-13T02:38:06;95321.25;;;7.44;73.91
6218;BME280;3142;48.206;11.550;2023-03-13T02:40:35;95325.44;;;7.45;73.77
6218;BME280;3142;48.206;11.550;2023-03-13T02:43:07;95332.25;;;7.46;74.16
6218;BME280;3142;48.206;11.550;2023-03-13T02:45:34;95323.22;;;7.42;74.57
6218;BME280;3142;48.206;11.550;2023-03-13T02:48:00;95312.03;;;7.41;73.41
6218;BME280;3142;48.206;11.550;2023-03-13T02:50:27;95322.44;;;7.41;74.07
6218;BME280;3142;48.206;11.550;2023-03-13T02:52:55;95317.34;;;7.33;74.12
6218;BME280;3142;48.206;11.550;2023-03-13T02:55:28;95323.75;;;7.31;74.44
6218;BME280;3142;48.206;11.550;2023-03-13T02:57:55;95319.53;;;7.30;74.77
6218;BME280;3142;48.206;11.550;2023-03-13T03:00:23;95319.47;;;7.23;74.73
6218;BME280;3142;48.206;11.550;2023-03-13T03:02:51;95318.47;;;7.24;74.48
6218;BME280;3142;48.206;11.550;2023-03-13T03:05:18;95316.88;;;7.23;74.15
6218;BME280;3142;48.206;11.550;2023-03-13T03:07:46;95316.44;;;7.20;74.87
6218;BME280;3142;48.206;11.550;2023-03-13T03:10:12;95311.84;;;7.22;74.63
6218;BME280;3142;48.206;11.550;2023-03-13T03:12:39;95315.25;;;7.22;74.81
6218;BME280;3142;48.206;11.550;2023-03-13T03:15:07;95316.25;;;7.21;73.95
6218;BME280;3142;48.206;11.550;2023-03-13T03:17:34;95320.66;;;7.21;74.04
6218;BME280;3142;48.206;11.550;2023-03-13T03:20:01;95324.06;;;7.21;74.29
6218;BME280;3142;48.206;11.550;2023-03-13T03:22:29;95322.69;;;7.25;74.52
6218;BME280;3142;48.206;11.550;2023-03-13T03:24:55;95321.25;;;7.23;74.03
6218;BME280;3142;48.206;11.550;2023-03-13T03:27:21;95323.13;;;7.29;73.66
6218;BME280;3142;48.206;11.550;2023-03-13T03:29:48;95325.13;;;7.27;74.29
6218;BME280;3142;48.206;11.550;2023-03-13T03:32:14;95327.72;;;7.27;74.16
6218;BME280;3142;48.206;11.550;2023-03-13T03:34:42;95322.44;;;7.20;74.37
6218;BME280;3142;48.206;11.550;2023-03-13T03:37:08;95320.22;;;7.17;74.45
6218;BME280;3142;48.206;11.550;2023-03-13T03:39:35;95319.25;;;7.18;73.83
6218;BME280;3142;48.206;11.550;2023-03-13T03:42:01;95309.81;;;7.17;74.66
6218;BME280;3142;48.206;11.550;2023-03-13T03:44:28;95319.44;;;7.17;74.15
6218;BME280;3142;48.206;11.550;2023-03-13T03:46:55;95310.94;;;7.08;74.56
6218;BME280;3142;48.206;11.550;2023-03-13T03:49:21;95311.09;;;7.00;74.31
6218;BME280;3142;48.206;11.550;2023-03-13T03:51:49;95306.50;;;7.02;73.71
6218;BME280;3142;48.206;11.550;2023-03-13T03:54:15;95301.66;;;6.99;74.78
6218;BME280;3142;48.206;11.550;2023-03-13T03:56:42;95301.00;;;6.90;74.98
6218;BME280;3142;48.206;11.550;2023-03-13T03:59:08;95298.63;;;6.95;74.60
6218;BME280;3142;48.206;11.550;2023-03-13T04:01:35;95295.66;;;6.98;74.73
6218;BME280;3142;48.206;11.550;2023-03-13T04:04:01;95295.03;;;6.96;75.04
6218;BME280;3142;48.206;11.550;2023-03-13T04:06:27;95289.66;;;6.98;74.73
6218;BME280;3142;48.206;11.550;2023-03-13T04:08:55;95285.63;;;6.95;74.10
6218;BME280;3142;48.206;11.550;2023-03-13T04:11:21;95276.66;;;6.98;74.73
6218;BME280;3142;48.206;11.550;2023-03-13T04:13:48;95278.44;;;6.97;74.67
6218;BME280;3142;48.206;11.550;2023-03-13T04:16:14;95275.28;;;7.02;73.96
6218;BME280;3142;48.206;11.550;2023-03-13T04:18:40;95274.91;;;7.05;74.04
6218;BME280;3142;48.206;11.550;2023-03-13T04:21:07;95257.69;;;7.04;74.37
6218;BME280;3142;48.206;11.550;2023-03-13T04:23:33;95263.09;;;7.02;73.97
6218;BME280;3142;48.206;11.550;2023-03-13T04:26:01;95251.91;;;7.02;73.36
6218;BME280;3142;48.206;11.550;2023-03-13T04:28:27;95249.28;;;7.02;73.93
6218;BME280;3142;48.206;11.550;2023-03-13T04:30:54;95253.13;;;7.06;73.23
6218;BME280;3142;48.206;11.550;2023-03-13T04:33:22;95245.09;;;7.01;73.36
6218;BME280;3142;48.206;11.550;2023-03-13T04:35:48;95233.72;;;7.08;73.11
6218;BME280;3142;48.206;11.550;2023-03-13T04:38:15;95230.31;;;7.08;73.24
6218;BME280;3142;48.206;11.550;2023-03-13T04:40:41;95226.53;;;7.10;72.52
6218;BME280;3142;48.206;11.550;2023-03-13T04:43:09;95221.78;;;7.14;73.00
6218;BME280;3142;48.206;11.550;2023-03-13T04:45:36;95212.16;;;7.15;72.40
6218;BME280;3142;48.206;11.550;2023-03-13T04:48:02;95209.75;;;7.13;72.21
6218;BME280;3142;48.206;11.550;2023-03-13T04:50:29;95202.19;;;7.18;72.78
6218;BME280;3142;48.206;11.550;2023-03-13T04:52:55;95211.81;;;7.24;71.96
6218;BME280;3142;48.206;11.550;2023-03-13T04:55:21;95202.66;;;7.28;71.49
6218;BME280;3142;48.206;11.550;2023-03-13T04:57:48;95194.44;;;7.31;71.57
6218;BME280;3142;48.206;11.550;2023-03-13T05:00:16;95196.66;;;7.34;71.31
6218;BME280;3142;48.206;11.550;2023-03-13T05:02:43;95193.88;;;7.36;71.23
6218;BME280;3142;48.206;11.550;2023-03-13T05:05:09;95192.88;;;7.37;70.98
6218;BME280;3142;48.206;11.550;2023-03-13T05:07:36;95205.31;;;7.41;71.40
6218;BME280;3142;48.206;11.550;2023-03-13T05:10:02;95187.28;;;7.40;70.99
6218;BME280;3142;48.206;11.550;2023-03-13T05:12:29;95193.72;;;7.44;71.04
6218;BME280;3142;48.206;11.550;2023-03-13T05:14:55;95193.72;;;7.44;71.61
6218;BME280;3142;48.206;11.550;2023-03-13T05:17:23;95191.72;;;7.46;71.08
6218;BME280;3142;48.206;11.550;2023-03-13T05:19:49;95185.91;;;7.44;70.36
6218;BME280;3142;48.206;11.550;2023-03-13T05:22:16;95175.72;;;7.49;70.88
6218;BME280;3142;48.206;11.550;2023-03-13T05:24:42;95174.72;;;7.50;71.17
6218;BME280;3142;48.206;11.550;2023-03-13T05:27:08;95174.31;;;7.53;70.49
6218;BME280;3142;48.206;11.550;2023-03-13T05:29:35;95178.56;;;7.61;70.35
6218;BME280;3142;48.206;11.550;2023-03-13T05:32:01;95160.34;;;7.61;70.18
6218;BME280;3142;48.206;11.550;2023-03-13T05:34:29;95178.19;;;7.64;69.72
6218;BME280;3142;48.206;11.550;2023-03-13T05:36:55;95169.56;;;7.63;69.56
6218;BME280;3142;48.206;11.550;2023-03-13T05:39:22;95179.38;;;7.61;70.47
6218;BME280;3142;48.206;11.550;2023-03-13T05:41:48;95167.78;;;7.64;69.55
6218;BME280;3142;48.206;11.550;2023-03-13T05:44:15;95164.97;;;7.65;70.04
6218;BME280;3142;48.206;11.550;2023-03-13T05:46:41;95165.41;;;7.69;70.28
6218;BME280;3142;48.206;11.550;2023-03-13T05:49:07;95142.38;;;7.72;69.56
6218;BME280;3142;48.206;11.550;2023-03-13T05:51:35;95143.38;;;7.78;68.69
6218;BME280;3142;48.206;11.550;2023-03-13T05:54:02;95156.41;;;7.78;69.65
6218;BME280;3142;48.206;11.550;2023-03-13T05:56:28;95147.59;;;7.79;68.70
6218;BME280;3142;48.206;11.550;2023-03-13T05:58:54;95139.41;;;7.82;68.65
6218;BME280;3142;48.206;11.550;2023-03-13T06:01:21;95140.00;;;7.84;68.52
6218;BME280;3142;48.206;11.550;2023-03-13T06:03:47;95139.63;;;7.87;67.90
6218;BME280;3142;48.206;11.550;2023-03-13T06:06:14;95150.63;;;7.83;68.55
6218;BME280;3142;48.206;11.550;2023-03-13T06:08:42;95146.81;;;7.85;68.43
6218;BME280;3142;48.206;11.550;2023-03-13T06:11:08;95131.59;;;7.82;67.67
6218;BME280;3142;48.206;11.550;2023-03-13T06:13:34;95129.19;;;7.87;67.43
6218;BME280;3142;48.206;11.550;2023-03-13T06:16:01;95128.78;;;7.90;68.11
6218;BME280;3142;48.206;11.550;2023-03-13T06:18:27;95125.19;;;7.91;67.30
6218;BME280;3142;48.206;11.550;2023-03-13T06:20:58;95116.81;;;7.96;67.65
6218;BME280;3142;48.206;11.550;2023-03-13T06:23:24;95112.00;;;8.06;67.01
6218;BME280;3142;48.206;11.550;2023-03-13T06:25:54;95113.22;;;8.10;67.14
6218;BME280;3142;48.206;11.550;2023-03-13T06:28:20;95116.41;;;8.19;67.55
6218;BME280;3142;48.206;11.550;2023-03-13T06:30:47;95114.84;;;8.24;67.33
6218;BME280;3142;48.206;11.550;2023-03-13T06:33:13;95117.63;;;8.29;66.67
6218;BME280;3142;48.206;11.550;2023-03-13T06:35:41;95113.06;;;8.38;66.47
6218;BME280;3142;48.206;11.550;2023-03-13T06:38:08;95112.44;;;8.43;65.69
6218;BME280;3142;48.206;11.550;2023-03-13T06:40:34;95114.06;;;8.50;65.78
6218;BME280;3142;48.206;11.550;2023-03-13T06:43:02;95109.25;;;8.54;65.41
6218;BME280;3142;48.206;11.550;2023-03-13T06:45:28;95102.41;;;8.59;65.28
6218;BME280;3142;48.206;11.550;2023-03-13T06:47:55;95113.84;;;8.65;65.19
6218;BME280;3142;48.206;11.550;2023-03-13T06:50:21;95114.03;;;8.70;65.48
6218;BME280;3142;48.206;11.550;2023-03-13T06:52:48;95108.41;;;8.73;66.13
6218;BME280;3142;48.206;11.550;2023-03-13T06:55:14;95111.63;;;8.75;64.72
6218;BME280;3142;48.206;11.550;2023-03-13T06:57:40;95112.84;;;8.79;65.69
6218;BME280;3142;48.206;11.550;2023-03-13T07:00:10;95114.44;;;8.80;64.64
6218;BME280;3142;48.206;11.550;2023-03-13T07:02:37;95108.41;;;8.86;65.10
6218;BME280;3142;48.206;11.550;2023-03-13T07:05:04;95103.97;;;8.87;65.12
6218;BME280;3142;48.206;11.550;2023-03-13T07:07:30;95100.16;;;8.89;65.29
6218;BME280;3142;48.206;11.550;2023-03-13T07:09:58;95118.25;;;8.91;64.73
6218;BME280;3142;48.206;11.550;2023-03-13T07:12:24;95116.44;;;8.92;64.10
6218;BME280;3142;48.206;11.550;2023-03-13T07:14:50;95107.41;;;8.94;64.06
6218;BME280;3142;48.206;11.550;2023-03-13T07:17:18;95102.78;;;8.96;64.30
6218;BME280;3142;48.206;11.550;2023-03-13T07:19:45;95101.97;;;8.96;63.95
6218;BME280;3142;48.206;11.550;2023-03-13T07:22:11;95106.56;;;9.00;63.92
6218;BME280;3142;48.206;11.550;2023-03-13T07:24:37;95101.94;;;9.02;63.61
6218;BME280;3142;48.206;11.550;2023-03-13T07:27:04;95100.53;;;9.06;64.41
6218;BME280;3142;48.206;11.550;2023-03-13T07:29:31;95092.50;;;9.08;62.80
6218;BME280;3142;48.206;11.550;2023-03-13T07:31:57;95110.34;;;9.11;63.60
6218;BME280;3142;48.206;11.550;2023-03-13T07:34:25;95105.31;;;9.16;62.94
6218;BME280;3142;48.206;11.550;2023-03-13T07:36:51;95114.34;;;9.20;64.12
6218;BME280;3142;48.206;11.550;2023-03-13T07:39:17;95114.53;;;9.25;63.03
6218;BME280;3142;48.206;11.550;2023-03-13T07:41:44;95103.88;;;9.27;62.68
6218;BME280;3142;48.206;11.550;2023-03-13T07:44:11;95099.66;;;9.26;62.94
6218;BME280;3142;48.206;11.550;2023-03-13T07:46:37;95093.81;;;9.30;63.01
6218;BME280;3142;48.206;11.550;2023-03-13T07:49:03;95096.22;;;9.32;61.72
6218;BME280;3142;48.206;11.550;2023-03-13T07:51:31;95086.19;;;9.35;62.74
6218;BME280;3142;48.206;11.550;2023-03-13T07:53:58;95094.41;;;9.39;61.78
6218;BME280;3142;48.206;11.550;2023-03-13T07:56:24;95093.97;;;9.42;61.52
6218;BME280;3142;48.206;11.550;2023-03-13T07:58:50;95097.16;;;9.50;62.23
6218;BME280;3142;48.206;11.550;2023-03-13T08:01:21;95090.88;;;9.58;61.83
6218;BME280;3142;48.206;11.550;2023-03-13T08:03:48;95090.06;;;9.64;60.82
6218;BME280;3142;48.206;11.550;2023-03-13T08:06:16;95088.06;;;9.66;61.07
6218;BME280;3142;48.206;11.550;2023-03-13T08:08:44;95090.03;;;9.71;61.56
6218;BME280;3142;48.206;11.550;2023-03-13T08:11:13;95078.97;;;9.75;60.49
6218;BME280;3142;48.206;11.550;2023-03-13T08:13:40;95084.19;;;9.75;60.99
6218;BME280;3142;48.206;11.550;2023-03-13T08:16:08;95078.53;;;9.78;60.42
6218;BME280;3142;48.206;11.550;2023-03-13T08:18:36;95084.50;;;9.86;60.22
6218;BME280;3142;48.206;11.550;2023-03-13T08:21:05;95081.88;;;9.92;61.05
6218;BME280;3142;48.206;11.550;2023-03-13T08:23:32;95085.22;;;9.99;60.71
6218;BME280;3142;48.206;11.550;2023-03-13T08:26:05;95096.09;;;10.03;59.91
6218;BME280;3142;48.206;11.550;2023-03-13T08:28:32;95088.19;;;10.09;60.63
6218;BME280;3142;48.206;11.550;2023-03-13T08:30:58;95097.84;;;10.09;60.45
6218;BME280;3142;48.206;11.550;2023-03-13T08:33:31;95089.78;;;10.10;60.41
6218;BME280;3142;48.206;11.550;2023-03-13T08:35:57;95083.19;;;10.08;60.74
6218;BME280;3142;48.206;11.550;2023-03-13T08:38:24;95086.59;;;10.08;60.40
6218;BME280;3142;48.206;11.550;2023-03-13T08:40:55;95096.03;;;10.09;61.31
6218;BME280;3142;48.206;11.550;2023-03-13T08:43:23;95087.31;;;10.22;60.91
6218;BME280;3142;48.206;11.550;2023-03-13T08:45:53;95093.81;;;10.45;60.76
6218;BME280;3142;48.206;11.550;2023-03-13T08:48:20;95095.81;;;11.11;59.83
6218;BME280;3142;48.206;11.550;2023-03-13T08:50:46;95089.31;;;11.32;59.25
6218;BME280;3142;48.206;11.550;2023-03-13T08:53:13;95085.91;;;11.31;59.24
6218;BME280;3142;48.206;11.550;2023-03-13T08:55:39;95089.88;;;11.34;59.34
6218;BME280;3142;48.206;11.550;2023-03-13T08:58:05;95089.59;;;11.42;59.30
6218;BME280;3142;48.206;11.550;2023-03-13T09:00:33;95080.63;;;11.68;58.14
6218;BME280;3142;48.206;11.550;2023-03-13T09:02:59;95081.84;;;11.83;57.95
6218;BME280;3142;48.206;11.550;2023-03-13T09:05:26;95070.81;;;12.35;56.41
6218;BME280;3142;48.206;11.550;2023-03-13T09:07:52;95065.72;;;12.75;55.60
6218;BME280;3142;48.206;11.550;2023-03-13T09:10:19;95073.13;;;12.90;55.14
6218;BME280;3142;48.206;11.550;2023-03-13T09:12:45;95065.81;;;12.80;54.74
6218;BME280;3142;48.206;11.550;2023-03-13T09:15:12;95065.69;;;12.87;54.78
6218;BME280;3142;48.206;11.550;2023-03-13T09:17:40;95065.56;;;13.05;54.67
6218;BME280;3142;48.206;11.550;2023-03-13T09:20:08;95072.53;;;13.23;55.21
6218;BME280;3142;48.206;11.550;2023-03-13T09:22:35;95067.00;;;13.76;53.31
6218;BME280;3142;48.206;11.550;2023-03-13T09:25:01;95048.63;;;14.94;51.37
6218;BME280;3142;48.206;11.550;2023-03-13T09:27:27;95044.59;;;15.95;49.36
6218;BME280;3142;48.206;11.550;2023-03-13T09:29:54;95028.66;;;16.76;46.80
6218;BME280;3142;48.206;11.550;2023-03-13T09:32:20;95024.38;;;17.23;45.64
6218;BME280;3142;48.206;11.550;2023-03-13T09:34:48;95024.75;;;17.46;44.57
6218;BME280;3142;48.206;11.550;2023-03-13T09:37:14;95036.53;;;17.86;43.94
6218;BME280;3142;48.206;11.550;2023-03-13T09:39:41;95017.50;;;17.99;42.27
6218;BME280;3142;48.206;11.550;2023-03-13T09:42:11;95024.63;;;17.89;42.61
6218;BME280;3142;48.206;11.550;2023-03-13T09:44:43;95024.34;;;17.75;42.53
6218;BME280;3142;48.206;11.550;2023-03-13T09:47:17;95024.53;;;17.58;42.31
6218;BME280;3142;48.206;11.550;2023-03-13T09:49:48;95034.03;;;17.54;42.69
6218;BME280;3142;48.206;11.550;2023-03-13T09:52:21;95015.41;;;18.01;41.25
6218;BME280;3142;48.206;11.550;2023-03-13T09:54:51;95018.31;;;18.56;39.94
6218;BME280;3142;48.206;11.550;2023-03-13T09:57:24;95016.69;;;18.90;38.05
6218;BME280;3142;48.206;11.550;2023-03-13T09:59:56;95012.97;;;19.02;39.16
6218;BME280;3142;48.206;11.550;2023-03-13T10:02:28;95003.97;;;18.87;38.89
6218;BME280;3142;48.206;11.550;2023-03-13T10:05:02;94998.72;;;18.52;39.78
6218;BME280;3142;48.206;11.550;2023-03-13T10:07:30;94997.63;;;18.83;39.41
6218;BME280;3142;48.206;11.550;2023-03-13T10:09:57;94998.94;;;18.96;40.16
6218;BME280;3142;48.206;11.550;2023-03-13T10:12:28;95000.56;;;18.46;39.94
6218;BME280;3142;48.206;11.550;2023-03-13T10:15:16;94993.94;;;18.33;40.11
6218;BME280;3142;48.206;11.550;2023-03-13T10:17:45;94986.25;;;18.22;40.58
6218;BME280;3142;48.206;11.550;2023-03-13T10:20:22;94982.00;;;17.80;41.01
6218;BME280;3142;48.206;11.550;2023-03-13T10:22:50;94989.56;;;17.46;41.53
6218;BME280;3142;48.206;11.550;2023-03-13T10:25:27;94986.94;;;17.46;42.39
6218;BME280;3142;48.206;11.550;2023-03-13T10:27:55;94990.22;;;17.94;41.71
6218;BME280;3142;48.206;11.550;2023-03-13T10:30:25;94977.81;;;18.25;40.90
6218;BME280;3142;48.206;11.550;2023-03-13T10:32:53;94979.91;;;18.79;40.42
6218;BME280;3142;48.206;11.550;2023-03-13T10:35:29;94976.97;;;18.75;40.23
6218;BME280;3142;48.206;11.550;2023-03-13T10:38:01;94979.66;;;18.34;41.25
6218;BME280;3142;48.206;11.550;2023-03-13T10:40:28;94965.63;;;17.98;41.92
6218;BME280;3142;48.206;11.550;2023-03-13T10:43:00;94954.75;;;17.69;43.37
6218;BME280;3142;48.206;11.550;2023-03-13T10:45:30;94948.06;;;17.46;43.98
6218;BME280;3142;48.206;11.550;2023-03-13T10:48:00;94966.31;;;17.43;44.83
6218;BME280;3142;48.206;11.550;2023-03-13T10:50:32;94954.75;;;17.74;45.10
6218;BME280;3142;48.206;11.550;2023-03-13T10:53:09;94949.19;;;17.91;44.96
6218;BME280;3142;48.206;11.550;2023-03-13T10:55:45;94946.81;;;18.15;43.26
6218;BME280;3142;48.206;11.550;2023-03-13T10:58:17;94936.19;;;18.46;42.65
6218;BME280;3142;48.206;11.550;2023-03-13T11:00:45;94947.81;;;18.80;42.95
6218;BME280;3142;48.206;11.550;2023-03-13T11:03:15;94943.78;;;18.98;42.41
6218;BME280;3142;48.206;11.550;2023-03-13T11:05:53;94936.13;;;18.86;43.49
6218;BME280;3142;48.206;11.550;2023-03-13T11:08:22;94948.34;;;18.62;43.71
6218;BME280;3142;48.206;11.550;2023-03-13T11:10:54;94937.78;;;18.47;44.70
6218;BME280;3142;48.206;11.550;2023-03-13T11:13:35;94934.91;;;18.23;45.50
6218;BME280;3142;48.206;11.550;2023-03-13T11:16:19;94944.69;;;18.07;46.34
6218;BME280;3142;48.206;11.550;2023-03-13T11:19:07;94939.66;;;18.05;45.83
6218;BME280;3142;48.206;11.550;2023-03-13T11:21:41;94935.09;;;18.72;45.06
6218;BME280;3142;48.206;11.550;2023-03-13T11:24:13;94940.44;;;19.37;44.26
6218;BME280;3142;48.206;11.550;2023-03-13T11:26:46;94912.13;;;20.05;42.78
6218;BME280;3142;48.206;11.550;2023-03-13T11:29:20;94928.94;;;20.59;41.66
6218;BME280;3142;48.206;11.550;2023-03-13T11:31:56;94894.44;;;20.96;41.15
6218;BME280;3142;48.206;11.550;2023-03-13T11:34:30;94898.81;;;21.11;40.84
6218;BME280;3142;48.206;11.550;2023-03-13T11:37:03;94904.00;;;21.21;40.57
6218;BME280;3142;48.206;11.550;2023-03-13T11:39:46;94905.72;;;21.12;40.67
6218;BME280;3142;48.206;11.550;2023-03-13T11:42:30;94889.75;;;21.12;40.37
6218;BME280;3142;48.206;11.550;2023-03-13T11:45:06;94896.56;;;20.99;40.60
6218;BME280;3142;48.206;11.550;2023-03-13T11:47:46;94887.50;;;21.00;40.90
6218;BME280;3142;48.206;11.550;2023-03-13T11:50:33;94890.09;;;21.06;41.04
6218;BME280;3142;48.206;11.550;2023-03-13T11:53:16;94876.78;;;21.29;40.37
6218;BME280;3142;48.206;11.550;2023-03-13T11:55:56;94877.34;;;21.45;39.39
6218;BME280;3142;48.206;11.550;2023-03-13T11:58:41;94870.78;;;21.38;39.73
6218;BME280;3142;48.206;11.550;2023-03-13T12:01:15;94867.00;;;21.44;39.86
6218;BME280;3142;48.206;11.550;2023-03-13T12:03:50;94874.59;;;21.13;40.28
6218;BME280;3142;48.206;11.550;2023-03-13T12:06:23;94866.53;;;20.51;40.73
6218;BME280;3142;48.206;11.550;2023-03-13T12:08:56;94873.78;;;20.40;40.98
6218;BME280;3142;48.206;11.550;2023-03-13T12:11:26;94870.16;;;20.60;40.63
6218;BME280;3142;48.206;11.550;2023-03-13T12:13:58;94866.38;;;20.66;40.11
6218;BME280;3142;48.206;11.550;2023-03-13T12:16:36;94865.81;;;20.40;40.50
6218;BME280;3142;48.206;11.550;2023-03-13T12:19:08;94862.09;;;20.12;41.69
6218;BME280;3142;48.206;11.550;2023-03-13T12:21:40;94849.53;;;19.94;41.96
6218;BME280;3142;48.206;11.550;2023-03-13T12:24:17;94861.44;;;19.68;42.38
6218;BME280;3142;48.206;11.550;2023-03-13T12:26:47;94856.06;;;19.78;43.07
6218;BME280;3142;48.206;11.550;2023-03-13T12:29:23;94857.91;;;19.77;43.36
6218;BME280;3142;48.206;11.550;2023-03-13T12:31:56;94847.59;;;19.71;43.76
6218;BME280;3142;48.206;11.550;2023-03-13T12:34:28;94846.25;;;19.73;42.84
6218;BME280;3142;48.206;11.550;2023-03-13T12:37:02;94834.31;;;19.71;42.65
6218;BME280;3142;48.206;11.550;2023-03-13T12:39:38;94827.16;;;19.71;42.86
6218;BME280;3142;48.206;11.550;2023-03-13T12:42:12;94830.31;;;19.73;42.26
6218;BME280;3142;48.206;11.550;2023-03-13T12:44:42;94827.22;;;19.66;43.20
6218;BME280;3142;48.206;11.550;2023-03-13T12:47:13;94834.31;;;19.71;42.62
6218;BME280;3142;48.206;11.550;2023-03-13T12:50:02;94822.34;;;19.73;42.78
6218;BME280;3142;48.206;11.550;2023-03-13T12:52:49;94791.41;;;19.64;42.23
6218;BME280;3142;48.206;11.550;2023-03-13T12:58:37;94797.97;;;19.32;43.60
6218;BME280;3142;48.206;11.550;2023-03-13T13:01:05;94784.69;;;19.37;43.66
6218;BME280;3142;48.206;11.550;2023-03-13T13:03:34;94785.34;;;19.53;43.82
6218;BME280;3142;48.206;11.550;2023-03-13T13:06:06;94778.69;;;19.61;43.90
6218;BME280;3142;48.206;11.550;2023-03-13T13:08:36;94774.69;;;19.63;43.68
6218;BME280;3142;48.206;11.550;2023-03-13T13:11:37;94774.69;;;19.63;44.12
6218;BME280;3142;48.206;11.550;2023-03-13T13:14:52;94760.06;;;19.66;44.19
6218;BME280;3142;48.206;11.550;2023-03-13T13:17:27;94772.19;;;19.72;44.54
6218;BME280;3142;48.206;11.550;2023-03-13T13:19:55;94765.72;;;19.83;44.36
6218;BME280;3142;48.206;11.550;2023-03-13T13:22:45;94755.59;;;19.90;44.16
6218;BME280;3142;48.206;11.550;2023-03-13T13:25:32;94747.91;;;19.89;43.70
6218;BME280;3142;48.206;11.550;2023-03-13T13:28:31;94762.56;;;19.81;44.18
6218;BME280;3142;48.206;11.550;2023-03-13T13:30:59;94749.38;;;19.71;44.59
6218;BME280;3142;48.206;11.550;2023-03-13T13:33:40;94733.19;;;19.72;44.75